Time;durP1;ratioP1;P1;durP2;ratioP2;P2;SDS_P1;SDS_P2;PMS_P1;PMS_P2;Temp;Humidity;BMP_temperature;BMP_pressure;BME280_temperature;BME280_humidity;BME280_pressure;Samples;Min_cycle;Max_cycle;Signal;HPM_P1;HPM_P2
2022/07/10 00:00:23;;;;;;;1.87;1.13;;;;;24.50;101552.00;;;;2071213;28;20214;-56
2022/07/10 00:01:23;;;;;;;2.57;1.60;;;;;24.50;101551.00;;;;2067833;28;20214;-56
2022/07/10 00:02:23;;;;;;;3.17;1.23;;;;;24.50;101547.00;;;;2071406;28;20214;-56
2022/07/10 00:03:24;;;;;;;2.17;1.40;;;;;24.50;101551.00;;;;2073700;28;20226;-56
2022/07/10 00:04:24;;;;;;;2.40;1.27;;;;;24.50;101553.00;;;;2079380;28;20226;-56
2022/07/10 00:05:25;;;;;;;2.30;1.30;;;;;24.50;101550.00;;;;2079445;28;20279;-56
2022/07/10 00:06:25;;;;;;;2.77;1.47;;;;;24.50;101558.00;;;;2077871;28;20712;-56
2022/07/10 00:07:25;;;;;;;1.83;1.00;;;;;24.40;101555.00;;;;2070303;28;20694;-56
2022/07/10 00:08:26;;;;;;;2.90;1.40;;;;;24.50;101555.00;;;;2070848;28;20686;-58
2022/07/10 00:09:27;;;;;;;4.20;1.53;;;;;24.50;101555.00;;;;2071158;28;20237;-58
2022/07/10 00:10:28;;;;;;;2.65;1.05;;;;;24.50;101563.00;;;;2070966;28;20222;-56
2022/07/10 00:11:29;;;;;;;2.42;1.35;;;;;24.50;101399.00;;;;2070852;28;20214;-56
2022/07/10 00:12:29;;;;;;;4.70;1.23;;;;;24.50;101557.00;;;;2071290;28;20554;-55
2022/07/10 00:13:29;;;;;;;1.87;1.40;;;;;24.50;101555.00;;;;2078947;28;20622;-56
2022/07/10 00:14:30;;;;;;;2.03;1.00;;;;;24.50;101553.00;;;;2079063;28;20224;-56
2022/07/10 00:15:31;;;;;;;3.90;1.67;;;;;24.50;101555.00;;;;2072246;28;20214;-56
2022/07/10 00:16:32;;;;;;;3.88;1.30;;;;;24.50;101553.00;;;;2071208;28;20214;-55
2022/07/10 00:17:32;;;;;;;2.80;1.17;;;;;24.50;101548.00;;;;2070235;28;20480;-56
2022/07/10 00:18:34;;;;;;;1.47;0.90;;;;;24.50;101544.00;;;;2071318;28;20215;-55
2022/07/10 00:19:34;;;;;;;2.33;1.25;;;;;24.50;101552.00;;;;2071351;28;21086;-55
2022/07/10 00:20:35;;;;;;;1.27;0.80;;;;;24.50;101550.00;;;;2070771;28;20241;-55
2022/07/10 00:21:35;;;;;;;2.10;1.00;;;;;24.50;101554.00;;;;2071254;28;20213;-55
2022/07/10 00:22:36;;;;;;;2.30;0.97;;;;;24.50;101588.00;;;;2070908;28;20214;-56
2022/07/10 00:23:36;;;;;;;3.83;1.03;;;;;24.50;101554.00;;;;2070964;28;20245;-56
2022/07/10 00:24:37;;;;;;;5.93;1.47;;;;;24.50;101553.00;;;;2069206;28;20460;-56
2022/07/10 00:25:37;;;;;;;2.33;1.00;;;;;24.50;101552.00;;;;2070882;28;20237;-56
2022/07/10 00:26:37;;;;;;;3.17;1.40;;;;;24.50;101548.00;;;;2071212;28;20237;-56
2022/07/10 00:27:38;;;;;;;2.63;1.23;;;;;24.50;101551.00;;;;2070385;28;20214;-56
2022/07/10 00:28:39;;;;;;;2.33;0.97;;;;;24.50;101565.00;;;;2071304;28;20218;-56
2022/07/10 00:29:39;;;;;;;2.87;1.20;;;;;24.50;101550.00;;;;2070900;28;20469;-56
2022/07/10 00:30:39;;;;;;;1.80;1.03;;;;;24.50;101550.00;;;;2069899;28;20771;-56
2022/07/10 00:31:39;;;;;;;3.10;1.37;;;;;24.50;101553.00;;;;2070304;28;20714;-56
2022/07/10 00:32:40;;;;;;;2.13;0.97;;;;;24.50;101549.00;;;;2070743;28;20260;-56
2022/07/10 00:33:40;;;;;;;3.70;1.57;;;;;24.50;101545.00;;;;2071043;28;20212;-55
2022/07/10 00:34:41;;;;;;;2.90;0.83;;;;;24.50;101549.00;;;;2071088;28;20979;-56
2022/07/10 00:35:41;;;;;;;3.50;1.30;;;;;24.50;101547.00;;;;2070472;28;20755;-56
2022/07/10 00:36:41;;;;;;;2.20;1.00;;;;;24.50;101540.00;;;;2070747;28;20301;-56
2022/07/10 00:37:42;;;;;;;2.87;1.00;;;;;24.50;101542.00;;;;2070277;28;20849;-56
2022/07/10 00:38:42;;;;;;;2.17;1.20;;;;;24.50;101533.00;;;;2071125;28;20229;-56
2022/07/10 00:39:42;;;;;;;2.37;1.23;;;;;24.50;101533.00;;;;2070467;28;20214;-56
2022/07/10 00:40:43;;;;;;;3.73;1.50;;;;;24.50;101539.00;;;;2070304;28;20268;-55
2022/07/10 00:41:43;;;;;;;2.40;1.10;;;;;24.50;101540.00;;;;2067441;28;20225;-55
2022/07/10 00:42:43;;;;;;;3.53;1.60;;;;;24.50;101535.00;;;;2078625;28;20209;-55
2022/07/10 00:43:57;;;;;;;2.60;1.00;;;;;24.50;101529.00;;;;2072619;28;20222;-55
2022/07/10 00:44:57;;;;;;;3.47;1.20;;;;;24.50;101517.00;;;;2070129;28;20218;-56
2022/07/10 00:45:58;;;;;;;1.63;0.90;;;;;24.40;101529.00;;;;2066599;28;20256;-56
2022/07/10 00:46:58;;;;;;;1.80;1.00;;;;;24.40;101536.00;;;;2069809;28;20211;-56
2022/07/10 00:47:58;;;;;;;1.53;0.90;;;;;24.50;101541.00;;;;2069539;28;20285;-56
2022/07/10 00:49:00;;;;;;;2.70;1.15;;;;;24.50;101543.00;;;;2071098;28;20678;-56
2022/07/10 00:50:00;;;;;;;1.97;1.10;;;;;24.50;101543.00;;;;2070901;28;20214;-56
2022/07/10 00:51:01;;;;;;;1.93;1.00;;;;;24.40;101534.00;;;;2071038;28;20288;-56
2022/07/10 00:52:03;;;;;;;2.30;1.00;;;;;24.40;101529.00;;;;2070940;28;20585;-56
2022/07/10 00:53:03;;;;;;;1.70;0.70;;;;;24.40;101538.00;;;;2070785;28;20808;-55
2022/07/10 00:54:04;;;;;;;2.60;0.93;;;;;24.40;101532.00;;;;2070199;28;20329;-55
2022/07/10 00:55:06;;;;;;;1.50;1.10;;;;;24.40;101533.00;;;;2070361;28;20272;-56
2022/07/10 00:56:09;;;;;;;1.48;0.80;;;;;24.40;101525.00;;;;2069885;28;20217;-55
2022/07/10 00:57:09;;;;;;;2.20;1.30;;;;;24.40;101527.00;;;;2070245;28;20195;-56
2022/07/10 00:58:10;;;;;;;2.20;0.80;;;;;24.40;101517.00;;;;2069441;28;20217;-55
2022/07/10 00:59:10;;;;;;;1.83;0.80;;;;;24.40;101526.00;;;;2069651;28;20206;-56
2022/07/10 01:00:11;;;;;;;3.37;1.17;;;;;24.40;101527.00;;;;2070765;28;20453;-56
2022/07/10 01:01:11;;;;;;;2.30;1.10;;;;;24.40;101523.00;;;;2070897;28;20298;-56
2022/07/10 01:02:12;;;;;;;1.40;0.60;;;;;24.40;101527.00;;;;2071032;28;20257;-56
2022/07/10 01:03:13;;;;;;;2.08;1.10;;;;;24.40;101530.00;;;;2070536;28;20218;-55
2022/07/10 01:04:13;;;;;;;1.77;0.83;;;;;24.40;101520.00;;;;2070098;28;20218;-55
2022/07/10 01:05:13;;;;;;;2.30;0.90;;;;;24.40;101526.00;;;;2069801;28;20214;-54
2022/07/10 01:06:14;;;;;;;1.90;0.73;;;;;24.40;101521.00;;;;2070288;28;20237;-55
2022/07/10 01:07:15;;;;;;;1.53;0.80;;;;;24.40;101522.00;;;;2069106;28;20226;-55
2022/07/10 01:08:16;;;;;;;2.92;1.40;;;;;24.40;101516.00;;;;2070523;28;20627;-55
2022/07/10 01:09:16;;;;;;;2.93;1.17;;;;;24.40;101519.00;;;;2069755;28;20203;-55
2022/07/10 01:10:16;;;;;;;2.50;1.03;;;;;24.40;101515.00;;;;2069975;28;20265;-55
2022/07/10 01:11:17;;;;;;;3.00;1.10;;;;;24.40;101511.00;;;;2070010;28;20217;-55
2022/07/10 01:12:17;;;;;;;5.50;1.50;;;;;24.40;101508.00;;;;2070266;28;20206;-55
2022/07/10 01:13:17;;;;;;;2.83;0.90;;;;;24.40;101504.00;;;;2070086;28;20686;-55
2022/07/10 01:14:18;;;;;;;1.70;1.00;;;;;24.40;101515.00;;;;2068085;28;20206;-55
2022/07/10 01:15:18;;;;;;;3.00;0.90;;;;;24.40;101515.00;;;;2069968;28;20226;-55
2022/07/10 01:16:19;;;;;;;3.03;1.10;;;;;24.40;101513.00;;;;2070072;28;20221;-55
2022/07/10 01:17:19;;;;;;;3.13;1.07;;;;;24.40;101515.00;;;;2070011;28;20218;-54
2022/07/10 01:18:19;;;;;;;5.50;1.20;;;;;24.40;101511.00;;;;2070491;28;20222;-55
2022/07/10 01:19:20;;;;;;;2.40;0.87;;;;;24.40;101517.00;;;;2070651;28;20214;-55
2022/07/10 01:20:20;;;;;;;5.00;1.00;;;;;24.40;101517.00;;;;2070531;28;20222;-55
2022/07/10 01:21:28;;;;;;;1.97;0.90;;;;;24.40;101515.00;;;;2070832;28;20241;-55
2022/07/10 01:22:28;;;;;;;2.92;1.10;;;;;24.30;101511.00;;;;2064100;28;20705;-55
2022/07/10 01:23:28;;;;;;;3.27;1.00;;;;;24.30;101508.00;;;;2069896;28;20230;-55
2022/07/10 01:24:29;;;;;;;5.83;1.10;;;;;24.40;101511.00;;;;2070480;28;20229;-55
2022/07/10 01:25:29;;;;;;;4.97;1.47;;;;;24.30;101507.00;;;;2070665;28;20214;-55
2022/07/10 01:26:29;;;;;;;4.57;0.90;;;;;24.40;101512.00;;;;2069012;28;20297;-55
2022/07/10 01:27:30;;;;;;;3.00;1.00;;;;;24.40;101509.00;;;;2069169;28;20209;-55
2022/07/10 01:28:30;;;;;;;2.73;1.00;;;;;24.30;101502.00;;;;2069854;28;20234;-55
2022/07/10 01:29:30;;;;;;;1.87;0.80;;;;;24.30;101511.00;;;;2061418;28;20211;-55
2022/07/10 01:30:31;;;;;;;2.05;0.70;;;;;24.30;101499.00;;;;2061217;28;20229;-55
2022/07/10 01:31:32;;;;;;;3.20;0.90;;;;;24.30;101502.00;;;;2070645;28;20210;-55
2022/07/10 01:32:39;;;;;;;2.60;0.87;;;;;24.30;101506.00;;;;2070699;28;20242;-55
2022/07/10 01:33:40;;;;;;;1.60;0.90;;;;;24.30;101500.00;;;;2070442;28;20218;-55
2022/07/10 01:34:41;;;;;;;2.10;0.90;;;;;24.30;101498.00;;;;2070536;28;20238;-55
2022/07/10 01:35:41;;;;;;;2.47;0.90;;;;;24.30;101504.00;;;;2070617;28;21027;-57
2022/07/10 01:36:41;;;;;;;1.60;0.63;;;;;24.30;101496.00;;;;2069790;28;20281;-56
2022/07/10 01:37:42;;;;;;;2.63;1.10;;;;;24.30;101507.00;;;;2067078;28;20221;-56
2022/07/10 01:38:42;;;;;;;1.27;0.80;;;;;24.30;101493.00;;;;2070498;28;20218;-55
2022/07/10 01:39:42;;;;;;;2.50;1.20;;;;;24.30;101494.00;;;;2070608;28;20240;-55
2022/07/10 01:40:43;;;;;;;4.70;1.17;;;;;24.30;101491.00;;;;2070505;28;20603;-55
2022/07/10 01:41:43;;;;;;;3.23;1.10;;;;;24.30;101492.00;;;;2070534;28;20632;-55
2022/07/10 01:42:43;;;;;;;3.73;1.00;;;;;24.30;101492.00;;;;2070691;28;20276;-55
2022/07/10 01:43:44;;;;;;;3.00;0.97;;;;;24.30;101490.00;;;;2070548;28;20222;-55
2022/07/10 01:44:45;;;;;;;4.40;1.20;;;;;24.30;101492.00;;;;2070458;28;20282;-55
2022/07/10 01:45:45;;;;;;;2.63;0.90;;;;;24.30;101493.00;;;;2070486;28;20519;-55
2022/07/10 01:46:46;;;;;;;2.80;1.03;;;;;24.30;101486.00;;;;2070599;28;20596;-55
2022/07/10 01:47:46;;;;;;;3.90;1.00;;;;;24.30;101484.00;;;;2069579;28;20220;-55
2022/07/10 01:48:46;;;;;;;1.93;0.73;;;;;24.30;101484.00;;;;2070656;28;20256;-55
2022/07/10 01:49:47;;;;;;;2.30;1.00;;;;;24.30;101492.00;;;;2070630;28;20206;-55
2022/07/10 01:50:47;;;;;;;4.77;1.00;;;;;24.30;101485.00;;;;2077721;28;20213;-55
2022/07/10 01:51:47;;;;;;;3.43;1.07;;;;;24.30;101488.00;;;;2078740;28;20263;-55
2022/07/10 01:52:48;;;;;;;1.60;0.80;;;;;24.30;101486.00;;;;2078570;28;20271;-55
2022/07/10 01:53:48;;;;;;;1.60;0.70;;;;;24.20;101484.00;;;;2078722;28;20210;-55
2022/07/10 01:54:48;;;;;;;1.83;0.70;;;;;24.30;101484.00;;;;2078714;28;21167;-55
2022/07/10 01:55:49;;;;;;;2.30;0.80;;;;;24.20;101488.00;;;;2078526;28;20224;-55
2022/07/10 01:56:49;;;;;;;1.60;0.80;;;;;24.20;101480.00;;;;2078678;28;20217;-55
2022/07/10 01:57:50;;;;;;;3.10;1.20;;;;;24.20;101481.00;;;;2077183;28;20272;-55
2022/07/10 01:58:50;;;;;;;2.83;1.00;;;;;24.20;101486.00;;;;2077818;28;20217;-55
2022/07/10 01:59:50;;;;;;;2.00;0.90;;;;;24.30;101480.00;;;;2077931;28;20294;-55
2022/07/10 02:00:50;;;;;;;2.33;0.83;;;;;24.30;101487.00;;;;2077657;28;20213;-55
2022/07/10 02:01:51;;;;;;;2.50;0.87;;;;;24.20;101485.00;;;;2078493;28;20217;-55
2022/07/10 02:05:29;;;;;;;2.00;1.00;;;;;24.20;101473.00;;;;2078696;28;20205;-55
2022/07/10 02:06:29;;;;;;;2.23;0.87;;;;;24.20;101476.00;;;;2078336;28;22589;-55
2022/07/10 02:07:30;;;;;;;2.40;1.10;;;;;24.20;101479.00;;;;2077581;28;20221;-55
2022/07/10 02:08:30;;;;;;;2.17;0.80;;;;;24.20;101463.00;;;;2078425;28;20244;-55
2022/07/10 02:09:30;;;;;;;2.40;0.77;;;;;24.20;101468.00;;;;2078290;28;20295;-55
2022/07/10 02:10:31;;;;;;;2.57;0.70;;;;;24.20;101474.00;;;;2078511;28;20316;-55
2022/07/10 02:11:31;;;;;;;2.77;0.97;;;;;24.20;101476.00;;;;2077858;28;20293;-55
2022/07/10 02:12:32;;;;;;;2.53;0.97;;;;;24.20;101481.00;;;;2078542;28;20233;-55
2022/07/10 02:13:32;;;;;;;1.60;0.80;;;;;24.20;101475.00;;;;2078501;28;20248;-55
2022/07/10 02:14:33;;;;;;;1.93;0.90;;;;;24.20;101359.00;;;;2078264;28;20463;-55
2022/07/10 02:15:33;;;;;;;3.37;1.00;;;;;24.20;101478.00;;;;2069588;28;20214;-54
2022/07/10 02:16:34;;;;;;;2.20;0.77;;;;;24.20;101467.00;;;;2069493;28;20311;-55
2022/07/10 02:17:34;;;;;;;3.20;0.70;;;;;24.20;101469.00;;;;2083824;28;20213;-55
2022/07/10 02:18:35;;;;;;;2.30;1.07;;;;;24.20;101468.00;;;;2086152;28;20247;-55
2022/07/10 02:19:35;;;;;;;2.60;0.90;;;;;24.20;101466.00;;;;2078263;28;20213;-55
2022/07/10 02:20:36;;;;;;;3.33;0.90;;;;;24.20;101467.00;;;;2078151;28;20225;-55
2022/07/10 02:21:36;;;;;;;1.70;0.77;;;;;24.20;101460.00;;;;2078464;28;20241;-55
2022/07/10 02:22:36;;;;;;;3.40;1.03;;;;;24.20;101475.00;;;;2078372;28;20220;-55
2022/07/10 02:23:39;;;;;;;1.70;0.73;;;;;24.20;101453.00;;;;2078111;28;20221;-54
2022/07/10 02:24:39;;;;;;;1.50;0.63;;;;;24.20;101469.00;;;;2078030;28;20300;-55
2022/07/10 02:25:39;;;;;;;1.43;0.80;;;;;24.20;101469.00;;;;2078562;28;20687;-55
2022/07/10 02:26:40;;;;;;;2.47;1.00;;;;;24.20;101466.00;;;;2078421;28;20240;-55
2022/07/10 02:27:40;;;;;;;2.80;0.70;;;;;24.20;101470.00;;;;2077449;28;20229;-55
2022/07/10 02:28:40;;;;;;;4.50;1.10;;;;;24.20;101466.00;;;;2077371;28;20217;-55
2022/07/10 02:29:41;;;;;;;2.60;0.90;;;;;24.20;101466.00;;;;2078422;28;20221;-55
2022/07/10 02:30:42;;;;;;;2.30;0.93;;;;;24.20;101465.00;;;;2078420;28;20237;-55
2022/07/10 02:31:42;;;;;;;1.90;0.65;;;;;24.20;101463.00;;;;2077819;28;20229;-55
2022/07/10 02:32:42;;;;;;;2.57;1.00;;;;;24.20;101468.00;;;;2078460;28;21032;-55
2022/07/10 02:33:43;;;;;;;2.97;0.70;;;;;24.20;101470.00;;;;2078436;28;20226;-55
2022/07/10 02:34:43;;;;;;;3.10;0.90;;;;;24.20;101466.00;;;;2079159;28;20228;-55
2022/07/10 02:35:43;;;;;;;2.10;0.67;;;;;24.20;101469.00;;;;2080006;28;20681;-54
2022/07/10 02:36:44;;;;;;;2.83;0.80;;;;;24.20;101469.00;;;;2080057;28;20248;-54
2022/07/10 02:37:44;;;;;;;3.80;1.07;;;;;24.20;101477.00;;;;2079077;28;20577;-55
2022/07/10 02:38:44;;;;;;;2.60;1.00;;;;;24.20;101467.00;;;;2080177;28;20218;-55
2022/07/10 02:39:45;;;;;;;2.23;0.60;;;;;24.20;101474.00;;;;2079926;28;20225;-54
2022/07/10 02:40:45;;;;;;;3.53;0.70;;;;;24.20;101462.00;;;;2079880;28;20749;-55
2022/07/10 02:41:45;;;;;;;2.90;1.00;;;;;24.20;101470.00;;;;2080192;28;20221;-55
2022/07/10 02:42:46;;;;;;;2.60;0.80;;;;;24.20;101462.00;;;;2080051;28;20224;-55
2022/07/10 02:43:46;;;;;;;2.33;0.90;;;;;24.20;101464.00;;;;2079607;28;20597;-59
2022/07/10 02:44:46;;;;;;;2.80;0.90;;;;;24.20;101457.00;;;;2079878;28;20270;-59
2022/07/10 02:45:47;;;;;;;1.60;0.70;;;;;24.20;101461.00;;;;2079973;28;20220;-58
2022/07/10 02:46:47;;;;;;;2.57;0.80;;;;;24.20;101466.00;;;;2079827;28;20229;-56
2022/07/10 02:47:47;;;;;;;2.00;0.73;;;;;24.20;101461.00;;;;2079248;28;21030;-56
2022/07/10 02:48:48;;;;;;;2.57;0.90;;;;;24.20;101485.00;;;;2080017;28;20663;-55
2022/07/10 02:49:48;;;;;;;2.63;0.90;;;;;24.20;101461.00;;;;2080214;28;20963;-55
2022/07/10 02:50:48;;;;;;;3.40;0.93;;;;;24.20;101456.00;;;;2079803;28;20724;-55
2022/07/10 02:51:50;;;;;;;2.47;0.90;;;;;24.20;101447.00;;;;2079977;28;20685;-55
2022/07/10 02:52:50;;;;;;;2.08;0.88;;;;;24.20;101454.00;;;;2079909;28;20260;-55
2022/07/10 02:53:51;;;;;;;3.20;1.00;;;;;24.20;101453.00;;;;2079048;28;20630;-55
2022/07/10 02:54:51;;;;;;;1.73;0.80;;;;;24.10;101455.00;;;;2071712;28;20620;-55
2022/07/10 02:55:51;;;;;;;2.40;0.87;;;;;24.20;101456.00;;;;2071802;28;20815;-55
2022/07/10 02:56:52;;;;;;;3.40;1.00;;;;;24.10;101455.00;;;;2071881;28;20209;-55
2022/07/10 02:57:52;;;;;;;1.97;0.77;;;;;24.10;101456.00;;;;2079140;28;20209;-54
2022/07/10 02:58:53;;;;;;;3.47;1.07;;;;;24.10;101452.00;;;;2080039;28;20294;-55
2022/07/10 02:59:53;;;;;;;2.00;0.97;;;;;24.10;101460.00;;;;2079855;28;20217;-54
2022/07/10 03:00:53;;;;;;;2.37;0.93;;;;;24.10;101460.00;;;;2079500;28;20217;-55
2022/07/10 03:01:54;;;;;;;1.60;0.70;;;;;24.10;101460.00;;;;2079912;28;20216;-55
2022/07/10 03:02:55;;;;;;;2.00;0.77;;;;;24.10;101456.00;;;;2079384;28;20778;-55
2022/07/10 03:03:55;;;;;;;2.90;1.10;;;;;24.10;101462.00;;;;2079197;28;20213;-55
2022/07/10 03:04:55;;;;;;;1.87;0.80;;;;;24.10;101456.00;;;;2079703;28;20460;-55
2022/07/10 03:05:56;;;;;;;2.07;0.93;;;;;24.10;101459.00;;;;2079851;28;20198;-55
2022/07/10 03:06:56;;;;;;;3.17;1.03;;;;;24.10;101461.00;;;;2079861;28;20239;-56
2022/07/10 03:07:56;;;;;;;3.50;1.33;;;;;24.10;101450.00;;;;2078782;28;20293;-55
2022/07/10 03:08:57;;;;;;;2.20;1.00;;;;;24.10;101464.00;;;;2079901;28;20275;-55
2022/07/10 03:09:57;;;;;;;1.37;0.80;;;;;24.10;101463.00;;;;2079722;28;20218;-55
2022/07/10 03:10:57;;;;;;;1.80;0.93;;;;;24.10;101457.00;;;;2074455;28;20226;-54
2022/07/10 03:11:58;;;;;;;3.10;0.87;;;;;24.10;101460.00;;;;2071900;28;20233;-54
2022/07/10 03:12:58;;;;;;;2.27;0.90;;;;;24.10;101465.00;;;;2071842;28;20214;-54
2022/07/10 03:13:58;;;;;;;2.80;1.00;;;;;24.10;101470.00;;;;2071773;28;20280;-55
2022/07/10 03:14:59;;;;;;;3.93;0.83;;;;;24.10;101457.00;;;;2078332;28;20209;-55
2022/07/10 03:15:59;;;;;;;1.60;0.63;;;;;24.10;101460.00;;;;2079418;28;20206;-55
2022/07/10 03:16:59;;;;;;;1.77;0.90;;;;;24.10;101460.00;;;;2078882;28;20213;-55
2022/07/10 03:18:00;;;;;;;2.83;0.90;;;;;24.10;101452.00;;;;2078031;28;20209;-55
2022/07/10 03:19:00;;;;;;;1.83;0.80;;;;;24.10;101462.00;;;;2079065;28;20245;-55
2022/07/10 03:20:00;;;;;;;3.20;1.00;;;;;24.10;101460.00;;;;2079056;28;20216;-55
2022/07/10 03:21:01;;;;;;;5.47;0.97;;;;;24.10;101463.00;;;;2078076;28;20209;-55
2022/07/10 03:22:01;;;;;;;1.73;0.77;;;;;24.10;101451.00;;;;2079075;28;20240;-55
2022/07/10 03:23:01;;;;;;;1.77;0.60;;;;;24.10;101460.00;;;;2078545;28;20218;-55
2022/07/10 03:24:02;;;;;;;2.10;0.90;;;;;24.10;101449.00;;;;2078380;28;20221;-55
2022/07/10 03:25:02;;;;;;;2.50;1.00;;;;;24.10;101456.00;;;;2078961;28;20221;-54
2022/07/10 03:26:03;;;;;;;3.30;0.90;;;;;24.10;101458.00;;;;2078604;28;20244;-55
2022/07/10 03:27:05;;;;;;;2.43;0.77;;;;;24.10;101439.00;;;;2079578;28;20223;-55
2022/07/10 03:28:05;;;;;;;1.55;1.02;;;;;24.10;101455.00;;;;2078604;28;20213;-55
2022/07/10 03:29:05;;;;;;;2.50;1.00;;;;;24.00;101458.00;;;;2079183;28;20213;-55
2022/07/10 03:30:06;;;;;;;4.03;1.10;;;;;24.10;101462.00;;;;2079328;28;20239;-55
2022/07/10 03:31:07;;;;;;;1.80;0.90;;;;;24.10;101456.00;;;;2079472;28;20233;-55
2022/07/10 03:32:07;;;;;;;2.40;0.87;;;;;24.10;101454.00;;;;2079303;28;20546;-54
2022/07/10 03:33:08;;;;;;;1.87;0.70;;;;;24.10;101457.00;;;;2079065;28;20300;-55
2022/07/10 03:34:09;;;;;;;3.07;0.93;;;;;24.10;101454.00;;;;2079403;28;20271;-55
2022/07/10 03:35:10;;;;;;;1.35;0.85;;;;;24.10;101445.00;;;;2079333;28;20624;-55
2022/07/10 03:36:10;;;;;;;1.60;0.80;;;;;24.10;101451.00;;;;2079472;28;20221;-55
2022/07/10 03:37:10;;;;;;;2.40;0.90;;;;;24.10;101452.00;;;;2079466;28;20216;-55
2022/07/10 03:38:11;;;;;;;5.30;0.90;;;;;24.10;101462.00;;;;2078673;28;20248;-55
2022/07/10 03:39:11;;;;;;;2.70;0.90;;;;;24.10;101454.00;;;;2079288;28;20210;-55
2022/07/10 03:40:12;;;;;;;1.83;0.90;;;;;24.00;101460.00;;;;2079437;28;20213;-55
2022/07/10 03:41:15;;;;;;;2.57;0.93;;;;;24.00;101459.00;;;;2079395;28;20250;-55
2022/07/10 03:42:15;;;;;;;2.58;1.27;;;;;24.10;101463.00;;;;2079825;28;20275;-55
2022/07/10 03:43:16;;;;;;;4.07;1.00;;;;;24.00;101463.00;;;;2079236;28;20221;-55
2022/07/10 03:44:16;;;;;;;2.60;0.83;;;;;24.10;101460.00;;;;2079229;28;20226;-55
2022/07/10 03:45:16;;;;;;;2.87;1.20;;;;;24.10;101456.00;;;;2079458;28;20217;-55
2022/07/10 03:46:17;;;;;;;3.63;1.00;;;;;24.00;101481.00;;;;2078744;28;20230;-55
2022/07/10 03:47:17;;;;;;;1.70;0.90;;;;;24.00;101462.00;;;;2079116;28;20673;-55
2022/07/10 03:48:17;;;;;;;1.80;0.70;;;;;24.00;101451.00;;;;2067687;28;20692;-55
2022/07/10 03:49:18;;;;;;;2.23;0.90;;;;;24.00;101452.00;;;;2071626;28;20218;-55
2022/07/10 03:50:18;;;;;;;1.93;0.93;;;;;24.10;101459.00;;;;2071350;28;20229;-55
2022/07/10 03:51:19;;;;;;;2.53;0.90;;;;;24.10;101457.00;;;;2071092;28;20650;-55
2022/07/10 03:52:19;;;;;;;3.63;0.80;;;;;24.10;101458.00;;;;2070268;28;20354;-55
2022/07/10 03:53:19;;;;;;;2.10;1.03;;;;;24.00;101452.00;;;;2071464;28;20218;-55
2022/07/10 03:54:19;;;;;;;2.60;1.20;;;;;24.00;101449.00;;;;2071260;28;20214;-55
2022/07/10 03:55:20;;;;;;;1.90;0.70;;;;;24.00;101456.00;;;;2071383;28;20305;-55
2022/07/10 03:57:56;;;;;;;1.95;0.90;;;;;24.10;101462.00;;;;2053008;28;20231;-55
2022/07/10 03:58:56;;;;;;;2.58;1.05;;;;;24.10;101460.00;;;;2064101;28;20297;-55
2022/07/10 03:59:57;;;;;;;2.00;1.07;;;;;24.10;101458.00;;;;2071562;28;20760;-55
2022/07/10 04:00:57;;;;;;;2.97;0.77;;;;;24.00;101464.00;;;;2071223;28;20907;-55
2022/07/10 04:01:57;;;;;;;3.40;0.90;;;;;24.10;101463.00;;;;2070249;28;20585;-55
2022/07/10 04:03:02;;;;;;;3.03;1.03;;;;;24.00;101461.00;;;;2071440;28;20248;-55
2022/07/10 04:04:02;;;;;;;1.55;0.80;;;;;24.00;101463.00;;;;2070300;28;20787;-54
2022/07/10 04:05:07;;;;;;;2.73;0.97;;;;;24.10;101470.00;;;;2070687;28;20222;-55
2022/07/10 04:06:08;;;;;;;2.60;0.88;;;;;24.00;101464.00;;;;2071112;28;20210;-55
2022/07/10 04:07:08;;;;;;;2.87;0.97;;;;;24.00;101468.00;;;;2071474;28;20260;-55
2022/07/10 04:08:09;;;;;;;2.00;0.97;;;;;24.00;101465.00;;;;2070713;28;20198;-54
2022/07/10 04:09:10;;;;;;;2.13;0.80;;;;;24.00;101467.00;;;;2071383;28;20214;-55
2022/07/10 04:10:10;;;;;;;2.23;0.70;;;;;24.00;101467.00;;;;2071386;28;20706;-55
2022/07/10 04:11:11;;;;;;;3.83;1.20;;;;;24.00;101465.00;;;;2071272;28;20739;-55
2022/07/10 04:12:11;;;;;;;3.37;1.07;;;;;24.00;101461.00;;;;2071075;28;20690;-55
2022/07/10 04:13:11;;;;;;;1.73;0.80;;;;;24.00;101462.00;;;;2071260;28;20673;-55
2022/07/10 04:14:12;;;;;;;2.53;0.90;;;;;24.00;101459.00;;;;2069585;28;21055;-55
2022/07/10 04:15:12;;;;;;;2.80;1.20;;;;;24.00;101457.00;;;;2071358;28;20895;-55
2022/07/10 04:16:13;;;;;;;2.87;1.00;;;;;24.00;101461.00;;;;2079406;28;20213;-55
2022/07/10 04:17:13;;;;;;;2.57;0.90;;;;;24.00;101463.00;;;;2079105;28;20696;-54
2022/07/10 04:18:13;;;;;;;3.00;0.80;;;;;24.00;101463.00;;;;2078834;28;20240;-55
2022/07/10 04:19:14;;;;;;;4.50;1.00;;;;;24.00;101459.00;;;;2079217;28;20210;-55
2022/07/10 04:20:15;;;;;;;3.90;1.10;;;;;24.00;101460.00;;;;2079151;28;20221;-55
2022/07/10 04:21:15;;;;;;;3.70;0.80;;;;;24.00;101464.00;;;;2079032;28;20210;-55
2022/07/10 04:22:16;;;;;;;3.97;1.20;;;;;24.00;101462.00;;;;2077102;28;20220;-55
2022/07/10 04:23:16;;;;;;;4.50;0.90;;;;;24.00;101469.00;;;;2079300;28;20201;-55
2022/07/10 04:24:16;;;;;;;3.93;1.10;;;;;24.00;101475.00;;;;2078999;28;20304;-55
2022/07/10 04:25:17;;;;;;;4.30;0.90;;;;;24.00;101461.00;;;;2079517;28;20220;-55
2022/07/10 04:26:17;;;;;;;2.70;0.93;;;;;24.00;101468.00;;;;2079411;28;20214;-55
2022/07/10 04:27:17;;;;;;;1.93;0.80;;;;;24.00;101461.00;;;;2077725;28;20237;-54
2022/07/10 04:28:18;;;;;;;2.00;0.80;;;;;24.00;101462.00;;;;2078014;28;20232;-55
2022/07/10 04:29:18;;;;;;;1.90;1.00;;;;;24.00;101466.00;;;;2079409;28;20209;-55
2022/07/10 04:30:18;;;;;;;2.83;1.17;;;;;24.00;101465.00;;;;2078515;28;20244;-55
2022/07/10 04:31:19;;;;;;;3.97;1.20;;;;;24.00;101464.00;;;;2077538;28;20220;-55
2022/07/10 04:32:19;;;;;;;2.33;0.87;;;;;24.00;101460.00;;;;2078031;28;20217;-55
2022/07/10 04:33:19;;;;;;;4.17;0.80;;;;;24.00;101464.00;;;;2079356;28;20213;-55
2022/07/10 04:34:20;;;;;;;2.70;1.20;;;;;24.00;101462.00;;;;2079038;28;20584;-55
2022/07/10 04:35:20;;;;;;;2.30;0.90;;;;;24.00;101454.00;;;;2079454;28;20222;-54
2022/07/10 04:36:20;;;;;;;2.50;0.80;;;;;24.00;101460.00;;;;2079361;28;20343;-55
2022/07/10 04:37:21;;;;;;;3.17;0.90;;;;;24.00;101454.00;;;;2078253;28;20260;-55
2022/07/10 04:38:21;;;;;;;4.30;1.00;;;;;24.00;101459.00;;;;2079226;28;20209;-55
2022/07/10 04:39:21;;;;;;;2.50;0.90;;;;;24.00;101460.00;;;;2079359;28;20248;-55
2022/07/10 04:40:22;;;;;;;2.80;0.80;;;;;24.00;101463.00;;;;2079066;28;20214;-55
2022/07/10 04:41:22;;;;;;;3.13;0.90;;;;;24.00;101442.00;;;;2078788;28;20209;-55
2022/07/10 04:42:22;;;;;;;2.80;0.60;;;;;24.00;101457.00;;;;2078114;28;20213;-55
2022/07/10 04:43:23;;;;;;;3.17;0.97;;;;;24.00;101461.00;;;;2078070;28;20256;-54
2022/07/10 04:44:23;;;;;;;3.77;1.03;;;;;24.00;101457.00;;;;2079254;28;20214;-55
2022/07/10 04:45:23;;;;;;;4.93;1.37;;;;;24.00;101457.00;;;;2078384;28;20210;-55
2022/07/10 04:46:24;;;;;;;4.00;1.20;;;;;24.00;101460.00;;;;2078438;28;20217;-55
2022/07/10 04:47:24;;;;;;;3.30;1.00;;;;;24.00;101457.00;;;;2078221;28;20324;-55
2022/07/10 04:48:24;;;;;;;2.70;0.80;;;;;24.00;101458.00;;;;2079202;28;20232;-55
2022/07/10 04:49:25;;;;;;;2.70;1.20;;;;;24.00;101456.00;;;;2079245;28;20209;-55
2022/07/10 04:50:25;;;;;;;3.77;1.00;;;;;24.00;101456.00;;;;2078719;28;20217;-55
2022/07/10 04:51:25;;;;;;;1.63;0.70;;;;;24.00;101458.00;;;;2079311;28;20220;-55
2022/07/10 04:52:26;;;;;;;3.90;1.17;;;;;24.00;101453.00;;;;2078916;28;20296;-55
2022/07/10 04:53:26;;;;;;;3.67;1.00;;;;;24.00;101459.00;;;;2079009;28;20213;-55
2022/07/10 04:54:26;;;;;;;4.73;1.07;;;;;24.00;101457.00;;;;2079062;28;20217;-55
2022/07/10 04:55:27;;;;;;;3.67;0.80;;;;;24.00;101460.00;;;;2078810;28;20232;-55
2022/07/10 04:56:27;;;;;;;2.40;1.10;;;;;23.80;101461.00;;;;2079012;28;20236;-54
2022/07/10 04:57:27;;;;;;;1.70;0.80;;;;;24.00;101452.00;;;;2078157;28;20225;-54
2022/07/10 04:58:28;;;;;;;1.93;1.00;;;;;24.00;101456.00;;;;2079127;28;20308;-55
2022/07/10 04:59:29;;;;;;;3.13;1.10;;;;;24.00;101461.00;;;;2079059;28;20221;-55
2022/07/10 05:00:29;;;;;;;2.57;1.10;;;;;24.00;101461.00;;;;2079087;28;20464;-55
2022/07/10 05:01:29;;;;;;;1.50;0.90;;;;;24.00;101456.00;;;;2079174;28;20218;-54
2022/07/10 05:02:30;;;;;;;3.63;1.10;;;;;24.00;101462.00;;;;2078952;28;20217;-55
2022/07/10 05:03:30;;;;;;;3.20;0.90;;;;;24.00;101464.00;;;;2078785;28;20237;-55